createdAt,value
2022-10-24T00:01:36.629Z,12.50
2022-10-24T00:04:08.187Z,12.37
2022-10-24T00:06:36.321Z,12.25
2022-10-24T00:09:04.652Z,12.17
2022-10-24T00:11:32.630Z,12.10
2022-10-24T00:14:00.909Z,12.17
2022-10-24T00:16:29.644Z,12.20
2022-10-24T00:18:57.850Z,12.18
2022-10-24T00:21:27.290Z,12.16
2022-10-24T00:23:55.331Z,12.18
2022-10-24T00:26:23.449Z,12.16
2022-10-24T00:28:51.600Z,12.15
2022-10-24T00:31:21.097Z,12.03
2022-10-24T00:33:49.147Z,11.92
2022-10-24T00:36:19.560Z,11.99
2022-10-24T00:38:49.694Z,11.87
2022-10-24T00:41:20.618Z,11.82
2022-10-24T00:43:49.135Z,11.79
2022-10-24T00:46:19.228Z,11.73
2022-10-24T00:48:49.543Z,11.67
2022-10-24T00:51:24.710Z,11.62
2022-10-24T00:56:33.720Z,11.54
2022-10-24T00:59:04.417Z,11.47
2022-10-24T01:01:34.086Z,11.39
2022-10-24T01:04:02.247Z,11.30
2022-10-24T01:06:47.193Z,11.25
2022-10-24T01:09:30.881Z,11.18
2022-10-24T01:12:10.040Z,11.14
2022-10-24T01:14:49.710Z,11.13
2022-10-24T01:17:23.996Z,11.13
2022-10-24T01:20:27.049Z,11.11
2022-10-24T01:23:29.602Z,11.13
2022-10-24T01:26:15.290Z,11.09
2022-10-24T01:28:53.861Z,11.12
2022-10-24T01:31:30.539Z,11.15
2022-10-24T01:34:05.064Z,11.17
2022-10-24T01:36:40.408Z,11.21
2022-10-24T01:39:14.977Z,11.27
2022-10-24T01:41:44.733Z,11.17
2022-10-24T01:44:18.162Z,11.10
2022-10-24T01:46:52.723Z,11.15
2022-10-24T01:49:24.551Z,11.18
2022-10-24T01:51:58.535Z,11.12
2022-10-24T01:54:27.094Z,11.18
2022-10-24T01:56:55.190Z,11.12
2022-10-24T01:59:45.917Z,11.08
2022-10-24T02:02:20.963Z,10.99
2022-10-24T02:04:55.598Z,10.91
2022-10-24T02:07:24.854Z,10.87
2022-10-24T02:09:58.962Z,10.83
2022-10-24T02:12:28.405Z,10.80
2022-10-24T02:15:01.520Z,10.80
2022-10-24T02:17:31.020Z,10.76
2022-10-24T02:20:00.197Z,10.73
2022-10-24T02:22:31.768Z,10.69
2022-10-24T02:25:04.297Z,10.69
2022-10-24T02:27:39.632Z,10.68
2022-10-24T02:30:11.204Z,10.64
2022-10-24T02:32:44.522Z,10.61
2022-10-24T02:35:16.075Z,10.64
2022-10-24T02:37:48.264Z,10.61
2022-10-24T02:40:18.943Z,10.63
2022-10-24T02:42:50.451Z,10.66
2022-10-24T02:45:19.723Z,10.61
2022-10-24T02:47:51.862Z,10.59
2022-10-24T02:50:20.698Z,10.58
2022-10-24T02:52:49.330Z,10.56
2022-10-24T02:55:17.436Z,10.56
2022-10-24T02:57:45.498Z,10.56
2022-10-24T03:00:14.601Z,10.59
2022-10-24T03:02:43.095Z,10.59
2022-10-24T03:05:12.844Z,10.57
2022-10-24T03:07:40.941Z,10.54
2022-10-24T03:10:09.578Z,10.51
2022-10-24T03:12:37.668Z,10.51
2022-10-24T03:15:06.384Z,10.53
2022-10-24T03:17:34.471Z,10.53
2022-10-24T03:20:02.704Z,10.51
2022-10-24T03:22:32.148Z,10.49
2022-10-24T03:25:03.031Z,10.46
2022-10-24T03:27:31.654Z,10.41
2022-10-24T03:29:59.635Z,10.40
2022-10-24T03:32:28.032Z,10.36
2022-10-24T03:34:56.249Z,10.33
2022-10-24T03:37:24.337Z,10.31
2022-10-24T03:39:53.758Z,10.29
2022-10-24T03:42:21.843Z,10.27
2022-10-24T03:44:49.895Z,10.27
2022-10-24T03:47:18.021Z,10.26
2022-10-24T03:49:46.067Z,10.29
2022-10-24T03:52:14.433Z,10.26
2022-10-24T03:54:42.548Z,10.26
2022-10-24T03:57:12.314Z,10.29
2022-10-24T03:59:40.376Z,10.35
2022-10-24T04:02:08.777Z,10.36
2022-10-24T04:04:37.806Z,10.32
2022-10-24T04:07:06.470Z,10.27
2022-10-24T04:09:34.799Z,10.24
2022-10-24T04:12:06.595Z,10.21
2022-10-24T04:14:51.384Z,10.21
2022-10-24T04:17:19.405Z,10.17
2022-10-24T04:19:47.611Z,10.20
2022-10-24T04:22:16.225Z,10.18
2022-10-24T04:24:44.353Z,10.18
2022-10-24T04:27:12.373Z,10.19
2022-10-24T04:29:41.879Z,10.18
2022-10-24T04:32:10.024Z,10.15
2022-10-24T04:34:38.245Z,10.14
2022-10-24T04:37:06.442Z,10.14
2022-10-24T04:39:34.590Z,10.13
2022-10-24T04:42:02.824Z,10.13
2022-10-24T04:44:31.099Z,10.12
2022-10-24T04:47:00.589Z,10.14
2022-10-24T04:49:28.665Z,10.16
2022-10-24T04:51:56.767Z,10.18
2022-10-24T04:54:24.819Z,10.18
2022-10-24T04:56:53.656Z,10.20
2022-10-24T04:59:21.660Z,10.23
2022-10-24T05:01:50.994Z,10.27
2022-10-24T05:04:20.660Z,10.32
2022-10-24T05:06:48.835Z,10.34
2022-10-24T05:09:16.971Z,10.36
2022-10-24T05:11:45.185Z,10.45
2022-10-24T05:14:14.291Z,10.49
2022-10-24T05:16:42.411Z,10.54
2022-10-24T05:19:10.474Z,10.61
2022-10-24T05:21:40.253Z,10.67
2022-10-24T05:24:08.559Z,10.71
2022-10-24T05:26:36.616Z,10.75
2022-10-24T05:29:04.868Z,10.84
2022-10-24T05:31:34.051Z,10.90
2022-10-24T05:34:02.060Z,10.99
2022-10-24T05:36:30.192Z,11.05
2022-10-24T05:38:59.713Z,11.14
2022-10-24T05:41:27.809Z,11.24
2022-10-24T05:43:55.945Z,11.29
2022-10-24T05:46:23.960Z,11.39
2022-10-24T05:48:52.435Z,11.51
2022-10-24T05:51:20.611Z,11.51
2022-10-24T05:53:48.653Z,11.58
2022-10-24T05:56:18.145Z,11.65
2022-10-24T05:58:46.386Z,11.68
2022-10-24T06:01:15.066Z,11.81
2022-10-24T06:03:43.367Z,11.76
2022-10-24T06:06:12.876Z,11.75
2022-10-24T06:08:41.218Z,11.82
2022-10-24T06:11:11.223Z,11.88
2022-10-24T06:13:41.003Z,12.00
2022-10-24T06:16:10.403Z,12.07
2022-10-24T06:18:38.886Z,12.14
2022-10-24T06:21:09.156Z,12.24
2022-10-24T06:23:37.717Z,12.32
2022-10-24T06:26:11.314Z,12.38
2022-10-24T06:28:40.829Z,12.54
2022-10-24T06:31:08.936Z,12.69
2022-10-24T06:33:37.089Z,12.85
2022-10-24T06:36:09.359Z,13.01
2022-10-24T06:38:37.965Z,13.15
2022-10-24T06:41:10.553Z,13.35
2022-10-24T06:43:42.747Z,13.41
2022-10-24T06:46:12.765Z,13.44
2022-10-24T06:48:40.900Z,13.54
2022-10-24T06:51:09.571Z,13.63
2022-10-24T06:53:37.639Z,13.78
2022-10-24T06:56:06.564Z,13.95
2022-10-24T06:58:35.668Z,14.00
2022-10-24T07:01:10.989Z,13.95
2022-10-24T07:03:39.376Z,13.90
2022-10-24T07:06:09.553Z,13.92
2022-10-24T07:08:38.071Z,14.05
2022-10-24T07:11:06.715Z,14.24
2022-10-24T07:13:34.799Z,14.45
2022-10-24T07:16:02.870Z,14.49
2022-10-24T07:18:32.402Z,14.58
2022-10-24T07:21:03.473Z,14.55
2022-10-24T07:23:32.107Z,14.49
2022-10-24T07:26:03.670Z,14.49
2022-10-24T07:28:32.429Z,14.62
2022-10-24T07:31:01.076Z,14.77
2022-10-24T07:33:29.876Z,14.82
2022-10-24T07:36:00.384Z,14.86
2022-10-24T07:38:28.946Z,14.97
2022-10-24T07:40:57.024Z,15.16
2022-10-24T07:43:25.463Z,15.17
2022-10-24T07:45:53.785Z,15.22
2022-10-24T07:48:22.087Z,15.27
2022-10-24T07:50:50.358Z,15.36
2022-10-24T07:53:19.694Z,15.55
2022-10-24T07:55:47.880Z,15.64
2022-10-24T07:58:16.142Z,15.68
2022-10-24T08:00:45.584Z,15.69
2022-10-24T08:03:13.938Z,15.82
2022-10-24T08:05:42.239Z,16.01
2022-10-24T08:08:27.592Z,16.12
2022-10-24T08:13:29.522Z,16.53
2022-10-24T08:15:57.947Z,16.53
2022-10-24T08:18:28.387Z,16.62
2022-10-24T08:21:00.259Z,16.68
2022-10-24T08:23:28.916Z,16.83
2022-10-24T08:25:57.006Z,16.88
2022-10-24T08:28:26.677Z,16.93
2022-10-24T08:30:58.859Z,17.02
2022-10-24T08:33:27.410Z,17.12
2022-10-24T08:35:58.238Z,17.33
2022-10-24T08:38:26.239Z,17.53
2022-10-24T08:40:54.439Z,17.45
2022-10-24T08:43:23.709Z,17.44
2022-10-24T08:46:02.063Z,17.57
2022-10-24T08:48:34.135Z,17.76
2022-10-24T08:51:12.172Z,17.94
2022-10-24T08:53:42.175Z,17.91
2022-10-24T08:56:13.448Z,17.98
2022-10-24T08:58:44.891Z,18.02
2022-10-24T09:01:31.277Z,18.11
2022-10-24T09:04:04.608Z,18.18
2022-10-24T09:06:34.104Z,18.31
2022-10-24T09:09:05.030Z,18.39
2022-10-24T09:11:45.688Z,18.46
2022-10-24T09:14:15.429Z,18.76
2022-10-24T09:16:46.680Z,18.84
2022-10-24T09:19:18.000Z,18.85
2022-10-24T09:21:47.235Z,18.75
2022-10-24T09:24:32.502Z,18.81
2022-10-24T09:27:04.592Z,18.97
2022-10-24T09:29:35.133Z,19.07
2022-10-24T09:32:05.235Z,19.15
2022-10-24T09:34:33.275Z,19.24
2022-10-24T09:37:01.826Z,19.36
2022-10-24T09:39:32.297Z,19.45
2022-10-24T09:42:24.889Z,19.47
2022-10-24T09:44:57.234Z,19.64
2022-10-24T09:47:30.648Z,19.75
2022-10-24T09:49:58.760Z,19.80
2022-10-24T09:52:32.873Z,19.81
2022-10-24T09:55:18.032Z,19.81
2022-10-24T09:57:46.515Z,19.91
2022-10-24T10:00:25.158Z,20.08
2022-10-24T10:03:03.155Z,20.23
2022-10-24T10:05:44.155Z,20.24
2022-10-24T10:08:18.014Z,20.21
2022-10-24T10:11:07.719Z,20.35
2022-10-24T10:13:45.537Z,20.39
2022-10-24T10:16:23.910Z,20.57
2022-10-24T10:19:02.598Z,20.74
2022-10-24T10:21:56.996Z,20.79
2022-10-24T10:24:27.738Z,20.86
2022-10-24T10:26:55.976Z,20.92
2022-10-24T10:29:25.152Z,21.02
2022-10-24T10:31:59.561Z,21.13
2022-10-24T10:34:36.613Z,21.18
2022-10-24T10:37:28.373Z,21.23
2022-10-24T10:40:17.579Z,21.43
2022-10-24T10:42:57.150Z,21.39
2022-10-24T10:45:36.980Z,21.37
2022-10-24T10:48:19.390Z,21.48
2022-10-24T10:50:56.732Z,21.54
2022-10-24T10:53:34.379Z,21.61
2022-10-24T10:56:16.394Z,21.74
2022-10-24T10:58:52.017Z,21.85
2022-10-24T11:01:32.169Z,21.90
2022-10-24T11:04:07.724Z,21.98
2022-10-24T11:06:47.969Z,22.02
2022-10-24T11:09:30.459Z,22.14
2022-10-24T11:12:08.602Z,22.17
2022-10-24T11:14:39.782Z,22.16
2022-10-24T11:17:14.155Z,22.17
2022-10-24T11:19:50.810Z,22.35
2022-10-24T11:22:26.562Z,22.40
2022-10-24T11:25:00.649Z,22.47
2022-10-24T11:27:34.216Z,22.45
2022-10-24T11:30:07.613Z,22.45
2022-10-24T11:32:41.917Z,22.54
2022-10-24T11:35:23.959Z,22.57
2022-10-24T11:37:58.580Z,22.62
2022-10-24T11:40:30.824Z,22.72
2022-10-24T11:43:09.828Z,22.74
2022-10-24T11:45:46.954Z,22.93
2022-10-24T11:48:20.242Z,22.91
2022-10-24T11:50:54.212Z,22.93
2022-10-24T11:53:47.927Z,23.07
2022-10-24T11:56:23.551Z,23.25
2022-10-24T11:59:00.430Z,23.20
2022-10-24T12:01:48.808Z,23.18
2022-10-24T12:04:49.674Z,23.28
2022-10-24T12:07:56.513Z,23.25
2022-10-24T12:10:43.854Z,23.25
2022-10-24T12:13:28.404Z,23.24
2022-10-24T12:16:03.816Z,23.25
2022-10-24T12:18:34.915Z,23.24
2022-10-24T12:21:06.395Z,23.39
2022-10-24T12:23:35.171Z,23.50
2022-10-24T12:26:07.373Z,23.51
2022-10-24T12:28:36.647Z,23.50
2022-10-24T12:31:23.814Z,23.47
2022-10-24T12:34:30.968Z,23.47
2022-10-24T12:37:21.234Z,23.44
2022-10-24T12:39:54.848Z,23.51
2022-10-24T12:43:03.906Z,23.54
2022-10-24T12:45:34.143Z,23.74
2022-10-24T12:48:33.044Z,23.75
2022-10-24T12:51:30.372Z,23.70
2022-10-24T12:54:15.298Z,23.74
2022-10-24T12:57:16.546Z,23.83
2022-10-24T12:59:48.652Z,23.95
2022-10-24T13:02:48.361Z,23.91
2022-10-24T13:05:35.951Z,23.80
2022-10-24T13:08:17.484Z,23.74
2022-10-24T13:10:53.762Z,23.69
2022-10-24T13:13:49.002Z,23.65
2022-10-24T13:16:30.622Z,23.66
2022-10-24T13:19:10.334Z,23.84
2022-10-24T13:21:47.837Z,23.95
2022-10-24T13:24:37.246Z,24.08
2022-10-24T13:27:26.075Z,24.17
2022-10-24T13:30:16.662Z,24.22
2022-10-24T13:32:45.041Z,24.19
2022-10-24T13:35:26.610Z,24.19
2022-10-24T13:38:00.604Z,24.14
2022-10-24T13:40:33.495Z,24.17
2022-10-24T13:43:07.566Z,24.18
2022-10-24T13:45:45.646Z,24.19
2022-10-24T13:48:19.065Z,24.13
2022-10-24T13:50:57.944Z,24.13
2022-10-24T13:53:31.198Z,24.07
2022-10-24T13:56:02.939Z,24.10
2022-10-24T13:58:44.297Z,24.22
2022-10-24T14:01:20.165Z,24.23
2022-10-24T14:03:49.678Z,24.23
2022-10-24T14:06:26.408Z,24.30
2022-10-24T14:09:06.511Z,24.33
2022-10-24T14:11:40.483Z,24.37
2022-10-24T14:14:24.663Z,24.31
2022-10-24T14:17:07.255Z,24.26
2022-10-24T14:19:38.382Z,24.25
2022-10-24T14:22:20.692Z,24.34
2022-10-24T14:24:49.418Z,24.29
2022-10-24T14:27:20.160Z,24.27
2022-10-24T14:30:00.184Z,24.22
2022-10-24T14:32:30.160Z,24.18
2022-10-24T14:37:37.303Z,24.12
2022-10-24T14:40:07.010Z,24.12
2022-10-24T14:42:35.605Z,24.10
2022-10-24T14:45:03.742Z,24.08
2022-10-24T14:47:34.733Z,24.02
2022-10-24T14:50:03.052Z,23.90
2022-10-24T14:52:37.024Z,23.80
2022-10-24T14:55:09.069Z,23.76
2022-10-24T14:57:38.079Z,23.71
2022-10-24T15:00:09.724Z,23.63
2022-10-24T15:02:43.035Z,23.59
2022-10-24T15:05:26.041Z,23.58
2022-10-24T15:08:20.376Z,23.51
2022-10-24T15:10:46.452Z,23.44
2022-10-24T15:13:17.019Z,23.40
2022-10-24T15:15:52.090Z,23.32
2022-10-24T15:18:23.906Z,23.20
2022-10-24T15:21:01.184Z,23.12
2022-10-24T15:23:32.058Z,23.03
2022-10-24T15:26:09.037Z,22.89
2022-10-24T15:28:48.628Z,22.81
2022-10-24T15:31:19.910Z,22.76
2022-10-24T15:33:50.052Z,22.71
2022-10-24T15:36:22.901Z,22.64
2022-10-24T15:38:55.519Z,22.56
2022-10-24T15:41:26.249Z,22.50
2022-10-24T15:43:54.610Z,22.40
2022-10-24T15:46:23.404Z,22.34
2022-10-24T15:48:51.732Z,22.24
2022-10-24T15:51:22.588Z,22.11
2022-10-24T15:53:52.743Z,22.01
2022-10-24T15:56:20.848Z,21.94
2022-10-24T15:58:50.982Z,21.91
2022-10-24T16:01:26.277Z,21.86
2022-10-24T16:03:55.007Z,21.85
2022-10-24T16:06:23.153Z,21.78
2022-10-24T16:08:51.353Z,21.68
2022-10-24T16:11:19.720Z,21.60
2022-10-24T16:13:49.347Z,21.49
2022-10-24T16:16:18.034Z,21.36
2022-10-24T16:18:46.147Z,21.24
2022-10-24T16:21:18.991Z,21.13
2022-10-24T16:23:47.302Z,21.03
2022-10-24T16:26:16.383Z,20.94
2022-10-24T16:28:44.481Z,20.85
2022-10-24T16:31:19.232Z,20.77
2022-10-24T16:33:47.915Z,20.70
2022-10-24T16:36:19.550Z,20.56
2022-10-24T16:38:50.491Z,20.48
2022-10-24T16:41:21.126Z,20.43
2022-10-24T16:43:50.111Z,20.38
2022-10-24T16:46:21.814Z,20.34
2022-10-24T16:48:50.453Z,20.34
2022-10-24T16:51:20.893Z,20.32
2022-10-24T16:53:48.994Z,20.35
2022-10-24T16:56:17.475Z,20.31
2022-10-24T16:58:45.750Z,20.29
2022-10-24T17:01:16.526Z,20.26
2022-10-24T17:03:46.407Z,20.19
2022-10-24T17:06:15.799Z,20.10
2022-10-24T17:08:44.265Z,20.00
2022-10-24T17:11:39.350Z,19.97
2022-10-24T17:14:03.276Z,19.98
2022-10-24T17:16:31.770Z,20.02
2022-10-24T17:19:17.481Z,19.90
2022-10-24T17:21:48.229Z,19.81
2022-10-24T17:24:19.198Z,19.78
2022-10-24T17:26:47.671Z,19.73
2022-10-24T17:29:19.099Z,19.68
2022-10-24T17:31:47.470Z,19.65
2022-10-24T17:34:17.336Z,19.62
2022-10-24T17:36:51.334Z,19.55
2022-10-24T17:39:27.505Z,19.51
2022-10-24T17:41:55.866Z,19.42
2022-10-24T17:44:24.444Z,19.33
2022-10-24T17:46:55.941Z,19.23
2022-10-24T17:49:28.018Z,19.13
2022-10-24T17:51:56.233Z,19.03
2022-10-24T17:54:24.769Z,18.92
2022-10-24T17:56:52.971Z,18.84
2022-10-24T17:59:22.089Z,18.78
2022-10-24T18:01:50.547Z,18.72
2022-10-24T18:04:18.939Z,18.65
2022-10-24T18:06:48.570Z,18.56
2022-10-24T18:09:16.734Z,18.50
2022-10-24T18:11:44.893Z,18.44
2022-10-24T18:14:12.998Z,18.37
2022-10-24T18:16:44.118Z,18.30
2022-10-24T18:19:12.551Z,18.24
2022-10-24T18:21:40.748Z,18.19
2022-10-24T18:24:10.508Z,18.11
2022-10-24T18:26:39.308Z,18.03
2022-10-24T18:29:07.378Z,17.98
2022-10-24T18:31:36.170Z,17.91
2022-10-24T18:34:07.522Z,17.90
2022-10-24T18:36:37.121Z,17.89
2022-10-24T18:39:05.639Z,17.76
2022-10-24T18:41:45.251Z,17.75
2022-10-24T18:44:26.234Z,17.64
2022-10-24T18:46:57.391Z,17.58
2022-10-24T18:49:26.280Z,17.54
2022-10-24T18:52:05.315Z,17.49
2022-10-24T18:54:36.487Z,17.50
2022-10-24T18:57:18.491Z,17.48
2022-10-24T18:59:48.056Z,17.50
2022-10-24T19:02:26.646Z,17.44
2022-10-24T19:05:05.813Z,17.43
2022-10-24T19:07:34.184Z,17.47
2022-10-24T19:10:02.484Z,17.54
2022-10-24T19:12:32.889Z,17.56
2022-10-24T19:15:01.358Z,17.53
2022-10-24T19:17:29.699Z,17.53
2022-10-24T19:20:00.581Z,17.49
2022-10-24T19:22:30.000Z,17.48
2022-10-24T19:24:58.881Z,17.49
2022-10-24T19:27:27.839Z,17.45
2022-10-24T19:29:57.355Z,17.38
2022-10-24T19:32:25.524Z,17.28
2022-10-24T19:34:53.813Z,17.19
2022-10-24T19:37:21.925Z,17.10
2022-10-24T19:39:50.058Z,17.02
2022-10-24T19:42:19.783Z,16.94
2022-10-24T19:44:53.968Z,16.91
2022-10-24T19:47:23.957Z,16.84
2022-10-24T19:49:53.814Z,16.80
2022-10-24T19:52:22.113Z,16.75
2022-10-24T19:54:50.254Z,16.72
2022-10-24T19:57:18.691Z,16.71
2022-10-24T19:59:46.851Z,16.70
2022-10-24T20:02:14.934Z,16.64
2022-10-24T20:04:48.905Z,16.55
2022-10-24T20:07:17.847Z,16.50
2022-10-24T20:09:46.451Z,16.42
2022-10-24T20:12:14.496Z,16.34
2022-10-24T20:14:42.576Z,16.26
2022-10-24T20:17:10.830Z,16.16
2022-10-24T20:19:38.875Z,16.09
2022-10-24T20:22:08.419Z,16.03
2022-10-24T20:24:36.592Z,15.96
2022-10-24T20:29:38.008Z,15.86
2022-10-24T20:32:06.429Z,15.82
2022-10-24T20:34:34.470Z,15.74
2022-10-24T20:37:02.754Z,15.68
2022-10-24T20:39:32.277Z,15.57
2022-10-24T20:42:00.394Z,15.49
2022-10-24T20:44:28.808Z,15.45
2022-10-24T20:46:59.071Z,15.39
2022-10-24T20:49:27.599Z,15.32
2022-10-24T20:51:55.701Z,15.27
2022-10-24T20:54:23.754Z,15.20
2022-10-24T20:56:54.059Z,15.13
2022-10-24T20:59:22.916Z,15.06
2022-10-24T21:01:51.121Z,14.99
2022-10-24T21:04:20.951Z,14.93
2022-10-24T21:06:49.359Z,15.02
2022-10-24T21:09:17.505Z,15.00
2022-10-24T21:11:45.582Z,14.96
2022-10-24T21:14:15.147Z,14.94
2022-10-24T21:16:43.379Z,14.96
2022-10-24T21:19:11.424Z,14.91
2022-10-24T21:21:40.237Z,14.86
2022-10-24T21:24:09.069Z,14.82
2022-10-24T21:26:39.108Z,14.82
2022-10-24T21:29:14.858Z,14.86
2022-10-24T21:31:52.145Z,14.85
2022-10-24T21:34:20.997Z,14.82
2022-10-24T21:36:49.381Z,14.72
2022-10-24T21:39:18.294Z,14.79
2022-10-24T21:41:46.466Z,14.77
2022-10-24T21:44:15.273Z,14.66
2022-10-24T21:46:43.379Z,14.63
2022-10-24T21:49:12.984Z,14.61
2022-10-24T21:51:42.843Z,14.56
2022-10-24T21:54:17.523Z,14.54
2022-10-24T21:56:45.717Z,14.54
2022-10-24T21:59:16.118Z,14.52
2022-10-24T22:01:46.638Z,14.54
2022-10-24T22:04:16.936Z,14.49
2022-10-24T22:06:46.175Z,14.45
2022-10-24T22:09:17.107Z,14.45
2022-10-24T22:11:46.714Z,14.44
2022-10-24T22:14:16.137Z,14.41
2022-10-24T22:16:46.818Z,14.33
2022-10-24T22:19:16.903Z,14.44
2022-10-24T22:21:47.160Z,14.37
2022-10-24T22:24:16.862Z,14.38
2022-10-24T22:26:45.440Z,14.38
2022-10-24T22:29:18.071Z,14.33
2022-10-24T22:31:47.083Z,14.32
2022-10-24T22:34:20.265Z,14.26
2022-10-24T22:37:02.516Z,14.18
2022-10-24T22:39:31.164Z,14.11
2022-10-24T22:41:59.559Z,14.18
2022-10-24T22:44:28.236Z,14.26
2022-10-24T22:47:19.266Z,14.23
2022-10-24T22:49:59.791Z,14.13
2022-10-24T22:52:28.442Z,14.05
2022-10-24T22:54:57.208Z,13.97
2022-10-24T22:57:25.942Z,13.89
2022-10-24T22:59:54.439Z,13.83
2022-10-24T23:02:31.455Z,13.77
2022-10-24T23:05:07.621Z,13.75
2022-10-24T23:07:45.299Z,13.69
2022-10-24T23:10:18.146Z,13.65
2022-10-24T23:12:47.114Z,13.63
2022-10-24T23:15:16.674Z,13.63
2022-10-24T23:17:46.008Z,13.59
2022-10-24T23:20:27.548Z,13.57
2022-10-24T23:23:09.427Z,13.59
2022-10-24T23:25:52.247Z,13.67
2022-10-24T23:28:25.421Z,13.66
2022-10-24T23:30:54.248Z,13.69
2022-10-24T23:33:27.384Z,13.67
2022-10-24T23:35:59.972Z,13.74
2022-10-24T23:38:29.152Z,13.74
2022-10-24T23:40:58.009Z,13.74
2022-10-24T23:43:26.598Z,13.78
2022-10-24T23:45:59.585Z,13.81
2022-10-24T23:48:42.495Z,13.73
2022-10-24T23:51:15.599Z,13.61
2022-10-24T23:53:50.560Z,13.54
2022-10-24T23:56:20.677Z,13.60
2022-10-24T23:58:48.902Z,13.58
